Terminal Aerodrome Forecast
Issued by NWS

Home | Current Version | Previous Version | Text Only | Print | Product List | Glossary On
Versions: 1 2 3 4 5 6 7 8 9 10 11 12 13 14 15 16 17 18 19 20
282
FTPA31 PHFO 262321
TAFHNY
TAF
PHNY 262321Z 2700/2724 03009KT P6SM SCT025 BKN040
      TEMPO 2623/2702 18006KT BKN020 OVC035
     FM270600 05006KT P6SM FEW020 SCT035=

USA.gov is the U.S. government's official web portal to all federal, state and local government web resources and services.